createdAt,value
2023-01-01T00:00:49.131Z,3.20
2023-01-01T00:03:16.357Z,3.20
2023-01-01T00:05:43.742Z,3.20
2023-01-01T00:08:10.932Z,3.20
2023-01-01T00:10:38.374Z,3.20
2023-01-01T00:13:05.824Z,3.20
2023-01-01T00:15:33.922Z,3.10
2023-01-01T00:18:01.062Z,3.10
2023-01-01T00:20:35.174Z,3.10
2023-01-01T00:23:03.308Z,3.10
2023-01-01T00:25:32.561Z,3.10
2023-01-01T00:27:59.883Z,3.00
2023-01-01T00:30:27.203Z,3.00
2023-01-01T00:32:56.034Z,3.00
2023-01-01T00:35:27.861Z,3.00
2023-01-01T00:37:55.901Z,3.00
2023-01-01T00:40:23.826Z,2.90
2023-01-01T00:42:51.017Z,2.90
2023-01-01T00:45:21.752Z,2.90
2023-01-01T00:47:54.216Z,2.80
2023-01-01T00:50:22.355Z,2.80
2023-01-01T00:52:50.148Z,2.80
2023-01-01T00:55:17.596Z,2.80
2023-01-01T00:57:44.985Z,2.80
2023-01-01T01:00:15.233Z,2.80
2023-01-01T01:02:42.543Z,2.80
2023-01-01T01:05:10.344Z,2.70
2023-01-01T01:07:38.715Z,2.70
2023-01-01T01:10:07.032Z,2.70
2023-01-01T01:12:35.635Z,2.70
2023-01-01T01:15:03.704Z,2.70
2023-01-01T01:17:31.015Z,2.70
2023-01-01T01:20:01.169Z,2.80
2023-01-01T01:22:31.833Z,2.70
2023-01-01T01:24:58.929Z,2.70
2023-01-01T01:27:26.593Z,2.70
2023-01-01T01:29:54.266Z,2.80
2023-01-01T01:32:21.459Z,2.80
2023-01-01T01:34:48.610Z,2.80
2023-01-01T01:37:15.831Z,2.80
2023-01-01T01:39:43.106Z,2.80
2023-01-01T01:42:18.400Z,2.90
2023-01-01T01:45:07.230Z,2.90
2023-01-01T01:48:11.312Z,2.90
2023-01-01T01:50:42.419Z,2.90
2023-01-01T01:53:30.699Z,2.90
2023-01-01T01:56:03.382Z,2.80
2023-01-01T01:58:32.855Z,2.90
2023-01-01T02:01:01.014Z,2.80
2023-01-01T02:03:49.301Z,2.80
2023-01-01T02:06:19.297Z,2.80
2023-01-01T02:08:47.387Z,2.80
2023-01-01T02:11:21.901Z,2.70
2023-01-01T02:13:50.908Z,2.70
2023-01-01T02:16:27.503Z,2.70
2023-01-01T02:19:18.427Z,2.60
2023-01-01T02:21:59.779Z,2.60
2023-01-01T02:25:15.762Z,2.60
2023-01-01T02:28:12.302Z,2.50
2023-01-01T02:30:41.872Z,2.50
2023-01-01T02:33:18.114Z,2.40
2023-01-01T02:36:03.805Z,2.40
2023-01-01T02:38:41.436Z,2.40
2023-01-01T02:41:28.569Z,2.40
2023-01-01T02:48:53.567Z,2.30
2023-01-01T02:51:23.459Z,2.20
2023-01-01T02:54:11.835Z,2.20
2023-01-01T02:56:55.807Z,2.20
2023-01-01T03:00:19.628Z,2.20
2023-01-01T03:03:14.297Z,2.20
2023-01-01T03:06:09.388Z,2.20
2023-01-01T03:09:27.179Z,2.20
2023-01-01T03:12:39.969Z,2.20
2023-01-01T03:15:14.870Z,2.30
2023-01-01T03:18:27.003Z,2.30
2023-01-01T03:21:00.159Z,2.30
2023-01-01T03:23:35.968Z,2.30
2023-01-01T03:26:07.261Z,2.30
2023-01-01T03:28:46.637Z,2.30
2023-01-01T03:31:19.244Z,2.30
2023-01-01T03:33:52.431Z,2.30
2023-01-01T03:36:27.893Z,2.30
2023-01-01T03:39:08.399Z,2.30
2023-01-01T03:42:02.300Z,2.30
2023-01-01T03:44:45.285Z,2.30
2023-01-01T03:47:13.256Z,2.30
2023-01-01T03:49:40.699Z,2.30
2023-01-01T03:52:36.023Z,2.40
2023-01-01T03:55:31.392Z,2.40
2023-01-01T03:58:12.779Z,2.40
2023-01-01T04:00:51.424Z,2.40
2023-01-01T04:03:29.201Z,2.40
2023-01-01T04:05:56.359Z,2.40
2023-01-01T04:08:23.757Z,2.40
2023-01-01T04:10:59.551Z,2.30
2023-01-01T04:13:26.901Z,2.30
2023-01-01T04:15:54.106Z,2.40
2023-01-01T04:18:21.415Z,2.30
2023-01-01T04:20:57.938Z,2.30
2023-01-01T04:23:25.060Z,2.30
2023-01-01T04:25:52.241Z,2.30
2023-01-01T04:28:20.363Z,2.20
2023-01-01T04:30:47.508Z,2.20
2023-01-01T04:33:14.623Z,2.20
2023-01-01T04:35:41.708Z,2.20
2023-01-01T04:38:14.561Z,2.10
2023-01-01T04:40:41.647Z,2.20
2023-01-01T04:43:08.824Z,2.20
2023-01-01T04:45:36.013Z,2.10
2023-01-01T04:48:05.737Z,2.10
2023-01-01T04:50:32.897Z,2.10
2023-01-01T04:53:00.139Z,2.10
2023-01-01T04:55:27.242Z,2.20
2023-01-01T04:57:54.347Z,2.20
2023-01-01T05:00:24.967Z,2.20
2023-01-01T05:02:52.224Z,2.20
2023-01-01T05:05:19.728Z,2.20
2023-01-01T05:07:49.631Z,2.20
2023-01-01T05:10:16.907Z,2.20
2023-01-01T05:12:44.030Z,2.20
2023-01-01T05:15:11.406Z,2.20
2023-01-01T05:17:38.522Z,2.10
2023-01-01T05:20:06.437Z,2.20
2023-01-01T05:22:33.595Z,2.20
2023-01-01T05:25:00.721Z,2.20
2023-01-01T05:27:27.829Z,2.20
2023-01-01T05:29:54.924Z,2.20
2023-01-01T05:32:22.077Z,2.20
2023-01-01T05:34:49.193Z,2.20
2023-01-01T05:37:16.354Z,2.10
2023-01-01T05:39:43.455Z,2.10
2023-01-01T05:42:10.729Z,2.10
2023-01-01T05:44:38.009Z,2.10
2023-01-01T05:47:05.300Z,2.10
2023-01-01T05:49:36.496Z,2.10
2023-01-01T05:52:04.155Z,2.10
2023-01-01T05:54:31.248Z,2.10
2023-01-01T05:56:58.319Z,2.00
2023-01-01T05:59:25.380Z,2.00
2023-01-01T06:01:55.777Z,2.10
2023-01-01T06:04:23.017Z,2.10
2023-01-01T06:06:50.163Z,2.10
2023-01-01T06:09:17.458Z,2.10
2023-01-01T06:11:44.533Z,2.10
2023-01-01T06:14:11.640Z,2.10
2023-01-01T06:16:38.809Z,2.10
2023-01-01T06:19:05.920Z,2.10
2023-01-01T06:21:33.172Z,2.10
2023-01-01T06:24:01.078Z,2.00
2023-01-01T06:26:31.953Z,2.00
2023-01-01T06:29:01.740Z,2.00
2023-01-01T06:31:34.099Z,2.00
2023-01-01T06:34:04.339Z,2.10
2023-01-01T06:36:31.511Z,2.00
2023-01-01T06:39:03.571Z,2.10
2023-01-01T06:41:31.337Z,2.00
2023-01-01T06:44:00.955Z,2.00
2023-01-01T06:46:34.753Z,2.00
2023-01-01T06:49:10.171Z,2.00
2023-01-01T06:51:43.653Z,2.00
2023-01-01T06:54:12.165Z,2.00
2023-01-01T06:56:40.056Z,2.00
2023-01-01T06:59:07.343Z,2.00
2023-01-01T07:01:37.041Z,2.00
2023-01-01T07:04:11.649Z,2.00
2023-01-01T07:06:39.358Z,2.00
2023-01-01T07:09:08.435Z,2.00
2023-01-01T07:11:36.012Z,2.00
2023-01-01T07:14:04.233Z,2.00
2023-01-01T07:16:31.793Z,2.00
2023-01-01T07:18:58.886Z,2.00
2023-01-01T07:21:33.308Z,2.00
2023-01-01T07:24:04.368Z,2.00
2023-01-01T07:26:33.439Z,2.00
2023-01-01T07:29:08.083Z,2.00
2023-01-01T07:31:37.696Z,2.00
2023-01-01T07:34:06.578Z,2.00
2023-01-01T07:36:34.141Z,2.10
2023-01-01T07:39:01.452Z,2.10
2023-01-01T07:41:28.617Z,2.20
2023-01-01T07:43:55.805Z,2.20
2023-01-01T07:46:25.515Z,2.30
2023-01-01T07:48:52.927Z,2.30
2023-01-01T07:51:20.128Z,2.30
2023-01-01T07:53:47.223Z,2.40
2023-01-01T07:56:14.356Z,2.50
2023-01-01T07:58:42.239Z,2.50
2023-01-01T08:01:14.634Z,2.60
2023-01-01T08:03:42.444Z,2.60
2023-01-01T08:06:12.135Z,2.60
2023-01-01T08:08:39.680Z,2.70
2023-01-01T08:11:07.532Z,2.70
2023-01-01T08:13:34.775Z,2.80
2023-01-01T08:16:02.293Z,2.80
2023-01-01T08:18:29.523Z,2.80
2023-01-01T08:20:57.597Z,2.80
2023-01-01T08:23:25.185Z,2.90
2023-01-01T08:25:52.460Z,2.80
2023-01-01T08:28:19.890Z,2.90
2023-01-01T08:30:47.012Z,2.90
2023-01-01T08:33:14.158Z,2.90
2023-01-01T08:35:42.968Z,2.90
2023-01-01T08:38:12.432Z,2.90
2023-01-01T08:40:40.359Z,2.90
2023-01-01T08:43:07.632Z,2.90
2023-01-01T08:45:34.986Z,3.00
2023-01-01T08:48:02.240Z,3.00
2023-01-01T08:50:29.600Z,3.10
2023-01-01T08:52:59.806Z,3.30
2023-01-01T08:55:27.287Z,3.40
2023-01-01T08:57:54.547Z,3.50
2023-01-01T09:00:21.758Z,3.70
2023-01-01T09:02:49.155Z,3.80
2023-01-01T09:05:16.557Z,3.90
2023-01-01T09:07:43.654Z,3.90
2023-01-01T09:10:10.816Z,4.00
2023-01-01T09:12:38.166Z,4.10
2023-01-01T09:15:06.296Z,4.20
2023-01-01T09:17:33.427Z,4.30
2023-01-01T09:20:00.525Z,4.40
2023-01-01T09:22:27.642Z,4.40
2023-01-01T09:24:54.807Z,4.50
2023-01-01T09:27:21.903Z,4.50
2023-01-01T09:29:49.004Z,4.60
2023-01-01T09:32:16.369Z,4.60
2023-01-01T09:34:48.718Z,4.70
2023-01-01T09:37:19.482Z,4.70
2023-01-01T09:39:47.075Z,4.80
2023-01-01T09:42:45.009Z,4.90
2023-01-01T09:45:26.092Z,5.00
2023-01-01T09:47:59.904Z,5.00
2023-01-01T09:50:41.701Z,5.10
2023-01-01T09:53:37.731Z,5.20
2023-01-01T09:56:06.220Z,5.30
2023-01-01T09:58:37.456Z,5.50
2023-01-01T10:01:45.708Z,5.80
2023-01-01T10:04:46.413Z,6.10
2023-01-01T10:07:29.766Z,6.30
2023-01-01T10:10:52.713Z,6.60
2023-01-01T10:13:33.924Z,6.90
2023-01-01T10:16:15.245Z,7.10
2023-01-01T10:18:50.242Z,7.40
2023-01-01T10:21:24.298Z,7.60
2023-01-01T10:24:05.895Z,7.90
2023-01-01T10:26:37.695Z,8.10
2023-01-01T10:29:37.073Z,8.40
2023-01-01T10:32:19.541Z,8.50
2023-01-01T10:34:47.147Z,8.70
2023-01-01T10:37:15.454Z,8.80
2023-01-01T10:39:45.180Z,8.90
2023-01-01T10:42:14.117Z,9.00
2023-01-01T10:44:41.818Z,9.00
2023-01-01T10:47:29.930Z,9.00
2023-01-01T10:50:01.109Z,9.00
2023-01-01T10:52:35.569Z,9.00
2023-01-01T10:55:03.532Z,9.00
2023-01-01T10:57:35.886Z,9.00
2023-01-01T11:00:24.543Z,9.10
2023-01-01T11:03:20.085Z,9.20
2023-01-01T11:06:23.055Z,9.30
2023-01-01T11:08:58.794Z,9.50
2023-01-01T11:11:55.492Z,9.70
2023-01-01T11:14:34.706Z,9.80
2023-01-01T11:17:02.201Z,10.00
2023-01-01T11:19:38.312Z,10.10
2023-01-01T11:22:06.427Z,10.30
2023-01-01T11:24:35.514Z,10.40
2023-01-01T11:27:26.116Z,10.50
2023-01-01T11:32:55.134Z,10.90
2023-01-01T11:35:27.102Z,11.00
2023-01-01T11:37:56.902Z,11.00
2023-01-01T11:40:44.627Z,11.10
2023-01-01T11:43:22.462Z,11.00
2023-01-01T11:45:58.744Z,11.00
2023-01-01T11:48:33.655Z,10.90
2023-01-01T11:51:08.399Z,10.90
2023-01-01T11:53:41.734Z,11.00
2023-01-01T11:56:22.418Z,11.00
2023-01-01T11:59:22.089Z,11.10
2023-01-01T12:01:59.327Z,11.30
2023-01-01T12:04:40.779Z,11.40
2023-01-01T12:07:15.545Z,11.60
2023-01-01T12:10:13.903Z,11.60
2023-01-01T12:13:22.561Z,11.60
2023-01-01T12:16:24.240Z,11.80
2023-01-01T12:19:13.525Z,11.90
2023-01-01T12:21:48.993Z,12.00
2023-01-01T12:24:20.256Z,12.20
2023-01-01T12:27:40.994Z,12.30
2023-01-01T12:30:58.308Z,12.50
2023-01-01T12:33:40.563Z,12.70
2023-01-01T12:36:49.713Z,12.70
2023-01-01T12:39:47.859Z,12.70
2023-01-01T12:42:23.625Z,12.80
2023-01-01T12:45:08.755Z,12.90
2023-01-01T12:47:47.476Z,12.90
2023-01-01T12:50:26.557Z,12.90
2023-01-01T12:53:21.560Z,12.90
2023-01-01T12:56:17.581Z,13.00
2023-01-01T12:59:07.357Z,13.20
2023-01-01T13:01:36.679Z,13.30
2023-01-01T13:04:33.359Z,13.40
2023-01-01T13:07:08.426Z,13.50
2023-01-01T13:09:48.336Z,13.60
2023-01-01T13:12:22.918Z,13.60
2023-01-01T13:14:51.055Z,13.70
2023-01-01T13:17:19.229Z,13.60
2023-01-01T13:19:46.905Z,13.70
2023-01-01T13:22:26.199Z,13.80
2023-01-01T13:25:11.034Z,13.80
2023-01-01T13:28:12.383Z,13.80
2023-01-01T13:30:41.405Z,13.80
2023-01-01T13:33:26.968Z,13.70
2023-01-01T13:36:12.158Z,13.70
2023-01-01T13:38:58.067Z,13.50
2023-01-01T13:41:41.363Z,13.60
2023-01-01T13:44:08.325Z,13.60
2023-01-01T13:46:52.272Z,13.50
2023-01-01T13:49:45.622Z,13.20
2023-01-01T13:52:49.174Z,13.10
2023-01-01T13:55:38.473Z,13.10
2023-01-01T13:58:32.012Z,13.10
2023-01-01T14:01:27.127Z,13.10
2023-01-01T14:04:00.608Z,13.10
2023-01-01T14:06:35.811Z,13.00
2023-01-01T14:09:19.497Z,12.90
2023-01-01T14:11:46.656Z,12.70
2023-01-01T14:14:29.627Z,12.70
2023-01-01T14:17:05.648Z,12.70
2023-01-01T14:19:33.219Z,12.60
2023-01-01T14:22:00.844Z,12.40
2023-01-01T14:24:28.765Z,12.30
2023-01-01T14:26:55.994Z,12.20
2023-01-01T14:29:30.922Z,12.10
2023-01-01T14:32:02.361Z,11.90
2023-01-01T14:34:32.806Z,11.70
2023-01-01T14:37:03.958Z,11.50
2023-01-01T14:39:34.904Z,11.40
2023-01-01T14:42:15.302Z,11.30
2023-01-01T14:44:49.639Z,11.20
2023-01-01T14:47:50.466Z,11.00
2023-01-01T14:50:17.486Z,10.90
2023-01-01T14:52:46.144Z,10.80
2023-01-01T14:55:19.976Z,10.60
2023-01-01T14:57:55.079Z,10.50
2023-01-01T15:00:27.327Z,10.40
2023-01-01T15:02:54.842Z,10.20
2023-01-01T15:05:36.079Z,10.10
2023-01-01T15:08:18.659Z,9.90
2023-01-01T15:10:46.116Z,9.80
2023-01-01T15:13:20.724Z,9.70
2023-01-01T15:16:10.496Z,9.60
2023-01-01T15:18:46.063Z,9.50
2023-01-01T15:21:31.278Z,9.40
2023-01-01T15:24:11.471Z,9.20
2023-01-01T15:26:44.729Z,9.00
2023-01-01T15:29:26.033Z,8.90
2023-01-01T15:32:03.637Z,8.80
2023-01-01T15:34:33.153Z,8.70
2023-01-01T15:37:21.654Z,8.60
2023-01-01T15:39:53.163Z,8.50
2023-01-01T15:42:40.653Z,8.40
2023-01-01T15:45:34.907Z,8.40
2023-01-01T15:48:04.737Z,8.30
2023-01-01T15:50:40.285Z,8.20
2023-01-01T15:53:25.383Z,8.10
2023-01-01T15:56:01.347Z,8.00
2023-01-01T15:59:07.172Z,8.00
2023-01-01T16:01:40.080Z,7.90
2023-01-01T16:04:28.069Z,7.90
2023-01-01T16:06:58.422Z,7.80
2023-01-01T16:09:25.569Z,7.80
2023-01-01T16:11:55.749Z,7.70
2023-01-01T16:14:23.819Z,7.70
2023-01-01T16:16:57.463Z,7.70
2023-01-01T16:19:30.751Z,7.70
2023-01-01T16:21:58.265Z,7.70
2023-01-01T16:24:25.497Z,7.70
2023-01-01T16:26:55.837Z,7.60
2023-01-01T16:29:23.384Z,7.60
2023-01-01T16:31:51.985Z,7.60
2023-01-01T16:34:19.281Z,7.60
2023-01-01T16:36:47.531Z,7.50
2023-01-01T16:39:14.817Z,7.50
2023-01-01T16:41:43.917Z,7.50
2023-01-01T16:44:15.826Z,7.40
2023-01-01T16:46:43.160Z,7.40
2023-01-01T16:49:10.483Z,7.40
2023-01-01T16:51:43.179Z,7.40
2023-01-01T16:54:11.674Z,7.30
2023-01-01T16:56:39.055Z,7.30
2023-01-01T16:59:06.490Z,7.30
2023-01-01T17:01:34.008Z,7.30
2023-01-01T17:04:01.503Z,7.20
2023-01-01T17:06:29.027Z,7.20
2023-01-01T17:08:56.301Z,7.10
2023-01-01T17:11:26.333Z,7.10
2023-01-01T17:13:53.849Z,7.00
2023-01-01T17:16:28.071Z,7.00
2023-01-01T17:19:15.682Z,6.90
2023-01-01T17:21:46.408Z,6.80
2023-01-01T17:24:15.283Z,6.80
2023-01-01T17:26:42.815Z,6.70
2023-01-01T17:29:11.139Z,6.70
2023-01-01T17:31:38.308Z,6.60
2023-01-01T17:34:05.645Z,6.60
2023-01-01T17:36:33.438Z,6.50
2023-01-01T17:39:00.892Z,6.40
2023-01-01T17:41:28.528Z,6.40
2023-01-01T17:43:57.190Z,6.30
2023-01-01T17:46:28.560Z,6.30
2023-01-01T17:48:56.003Z,6.20
2023-01-01T17:51:24.488Z,6.20
2023-01-01T17:53:52.177Z,6.10
2023-01-01T17:56:22.285Z,6.10
2023-01-01T17:58:53.687Z,6.10
2023-01-01T18:01:27.154Z,6.10
2023-01-01T18:04:01.646Z,6.10
2023-01-01T18:06:31.229Z,6.00
2023-01-01T18:09:02.486Z,6.00
2023-01-01T18:11:31.665Z,5.90
2023-01-01T18:14:02.062Z,5.90
2023-01-01T18:16:31.621Z,5.90
2023-01-01T18:19:04.033Z,5.90
2023-01-01T18:21:35.152Z,5.90
2023-01-01T18:24:02.732Z,5.80
2023-01-01T18:26:31.311Z,5.80
2023-01-01T18:29:01.746Z,5.90
2023-01-01T18:31:32.833Z,5.80
2023-01-01T18:34:04.531Z,5.80
2023-01-01T18:36:34.851Z,5.90
2023-01-01T18:39:32.054Z,5.90
2023-01-01T18:42:19.861Z,6.10
2023-01-01T18:44:47.826Z,6.30
2023-01-01T18:47:18.599Z,6.20
2023-01-01T18:50:26.636Z,6.10
2023-01-01T18:53:22.261Z,6.10
2023-01-01T18:56:25.381Z,6.00
2023-01-01T18:58:57.096Z,6.00
2023-01-01T19:01:25.613Z,5.90
2023-01-01T19:03:59.603Z,5.90
2023-01-01T19:06:33.538Z,6.00
2023-01-01T19:09:25.305Z,5.90
2023-01-01T19:11:55.426Z,5.90
2023-01-01T19:14:25.540Z,5.90
2023-01-01T19:16:58.145Z,5.90
2023-01-01T19:19:29.903Z,5.90
2023-01-01T19:22:32.259Z,5.80
2023-01-01T19:25:22.298Z,5.80
2023-01-01T19:27:53.476Z,5.80
2023-01-01T19:30:26.167Z,5.80
2023-01-01T19:32:54.004Z,5.80
2023-01-01T19:35:21.584Z,5.80
2023-01-01T19:37:51.647Z,5.80
2023-01-01T19:40:19.293Z,5.80
2023-01-01T19:42:46.796Z,5.70
2023-01-01T19:45:14.198Z,5.80
2023-01-01T19:47:45.609Z,5.70
2023-01-01T19:50:21.683Z,5.70
2023-01-01T19:52:50.763Z,5.70
2023-01-01T19:55:18.107Z,5.70
2023-01-01T19:57:46.061Z,5.70
2023-01-01T20:00:14.720Z,5.70
2023-01-01T20:02:46.509Z,5.70
2023-01-01T20:05:17.760Z,5.70
2023-01-01T20:07:48.289Z,5.70
2023-01-01T20:10:16.694Z,5.70
2023-01-01T20:12:45.700Z,5.70
2023-01-01T20:15:16.421Z,5.70
2023-01-01T20:17:44.828Z,5.80
2023-01-01T20:20:12.917Z,5.80
2023-01-01T20:22:42.615Z,5.80
2023-01-01T20:25:11.738Z,5.80
2023-01-01T20:28:04.154Z,5.90
2023-01-01T20:30:32.386Z,5.90
2023-01-01T20:33:00.779Z,5.90
2023-01-01T20:35:46.998Z,6.00
2023-01-01T20:38:19.006Z,6.00
2023-01-01T20:40:47.801Z,6.10
2023-01-01T20:43:17.391Z,6.10
2023-01-01T20:45:45.518Z,6.10
2023-01-01T20:48:19.555Z,6.20
2023-01-01T20:50:47.773Z,6.30
2023-01-01T20:53:15.876Z,6.30
2023-01-01T20:55:43.907Z,6.30
2023-01-01T20:58:13.223Z,6.30
2023-01-01T21:00:43.420Z,6.40
2023-01-01T21:03:11.641Z,6.40
2023-01-01T21:05:39.752Z,6.40
2023-01-01T21:08:09.134Z,6.40
2023-01-01T21:10:38.801Z,6.40
2023-01-01T21:13:11.623Z,6.50
2023-01-01T21:15:42.138Z,6.50
2023-01-01T21:18:12.877Z,6.50
2023-01-01T21:20:50.699Z,6.50
2023-01-01T21:23:29.823Z,6.50
2023-01-01T21:25:57.511Z,6.50
2023-01-01T21:28:33.110Z,6.50
2023-01-01T21:31:01.359Z,6.50
2023-01-01T21:33:32.044Z,6.50
2023-01-01T21:36:05.617Z,6.60
2023-01-01T21:38:33.022Z,6.70
2023-01-01T21:41:02.182Z,6.70
2023-01-01T21:43:36.650Z,6.80
2023-01-01T21:46:07.001Z,6.80
2023-01-01T21:48:39.408Z,6.90
2023-01-01T21:51:21.704Z,6.90
2023-01-01T21:53:49.300Z,7.00
2023-01-01T21:56:34.134Z,7.00
2023-01-01T21:59:37.875Z,7.00
2023-01-01T22:02:08.066Z,7.10
2023-01-01T22:04:48.956Z,7.10
2023-01-01T22:10:25.475Z,7.20
2023-01-01T22:13:01.576Z,7.20
2023-01-01T22:15:40.782Z,7.30
2023-01-01T22:18:28.392Z,7.20
2023-01-01T22:20:56.484Z,7.30
2023-01-01T22:23:38.268Z,7.30
2023-01-01T22:26:18.645Z,7.30
2023-01-01T22:28:49.379Z,7.30
2023-01-01T22:31:25.825Z,7.30
2023-01-01T22:33:55.418Z,7.30
2023-01-01T22:36:34.658Z,7.30
2023-01-01T22:39:12.433Z,7.30
2023-01-01T22:41:41.329Z,7.40
2023-01-01T22:44:11.592Z,7.40
2023-01-01T22:46:42.706Z,7.30
2023-01-01T22:49:19.040Z,7.40
2023-01-01T22:51:49.769Z,7.40
2023-01-01T22:54:16.920Z,7.40
2023-01-01T22:56:44.039Z,7.40
2023-01-01T22:59:11.184Z,7.40
2023-01-01T23:01:38.444Z,7.40
2023-01-01T23:04:05.651Z,7.40
2023-01-01T23:06:33.327Z,7.40
2023-01-01T23:09:04.256Z,7.40
2023-01-01T23:11:34.802Z,7.40
2023-01-01T23:14:20.749Z,7.40
2023-01-01T23:16:47.844Z,7.40
2023-01-01T23:19:18.010Z,7.40
2023-01-01T23:21:45.762Z,7.40
2023-01-01T23:24:19.147Z,7.40
2023-01-01T23:26:48.488Z,7.40
2023-01-01T23:29:17.063Z,7.40
2023-01-01T23:31:45.361Z,7.40
2023-01-01T23:34:13.092Z,7.40
2023-01-01T23:36:43.402Z,7.40
2023-01-01T23:39:10.659Z,7.40
2023-01-01T23:41:37.780Z,7.40
2023-01-01T23:44:05.306Z,7.40
2023-01-01T23:46:36.731Z,7.40
2023-01-01T23:49:05.725Z,7.40
2023-01-01T23:51:33.973Z,7.40
2023-01-01T23:54:01.218Z,7.40
2023-01-01T23:56:28.380Z,7.40
2023-01-01T23:58:55.725Z,7.40
